Time;durP1;ratioP1;P1;durP2;ratioP2;P2;SDS_P1;SDS_P2;PMS_P1;PMS_P2;Temp;Humidity;BMP_temperature;BMP_pressure;BME280_temperature;BME280_humidity;BME280_pressure;Samples;Min_cycle;Max_cycle;Signal;HPM_P1;HPM_P2
2022/05/20 00:00:13;;;;;;;5.05;3.60;;;;;;;21.65;44.01;94021.44;5013563;28;20462;-88
2022/05/20 00:02:38;;;;;;;4.15;3.75;;;;;;;21.63;44.16;94018.50;5015025;28;20539;-85
2022/05/20 00:05:04;;;;;;;3.78;3.38;;;;;;;21.64;44.06;94019.22;5030887;28;20133;-91
2022/05/20 00:07:30;;;;;;;4.32;3.78;;;;;;;21.63;44.15;94026.75;5031015;28;20133;-85
2022/05/20 00:09:55;;;;;;;5.40;3.35;;;;;;;21.63;43.85;94021.25;4997318;28;20119;-92
2022/05/20 00:12:21;;;;;;;4.25;3.22;;;;;;;21.63;44.26;94026.75;5012815;28;20407;-88
2022/05/20 00:14:46;;;;;;;3.63;3.10;;;;;;;21.64;44.31;94030.25;5030862;28;20415;-90
2022/05/20 00:17:12;;;;;;;3.97;3.58;;;;;;;21.64;44.18;94039.25;5018252;28;20383;-87
2022/05/20 00:19:37;;;;;;;3.63;3.20;;;;;;;21.62;44.16;94041.75;5017026;28;20078;-92
2022/05/20 00:22:05;;;;;;;3.67;3.38;;;;;;;21.64;44.20;94030.25;5016846;28;20029;-91
2022/05/20 00:24:30;;;;;;;4.10;3.70;;;;;;;21.62;44.19;94041.00;5033316;28;20037;-90
2022/05/20 00:26:56;;;;;;;3.97;3.58;;;;;;;21.62;44.23;94032.75;5016697;28;20036;-92
2022/05/20 00:29:22;;;;;;;4.88;3.92;;;;;;;21.62;44.04;94027.25;5029063;28;21043;-85
2022/05/20 00:31:47;;;;;;;3.72;3.30;;;;;;;21.62;44.25;94038.25;5013946;28;20048;-91
2022/05/20 00:34:14;;;;;;;3.97;3.63;;;;;;;21.60;44.29;94041.53;5013986;28;20041;-86
2022/05/20 00:36:39;;;;;;;3.72;3.33;;;;;;;21.60;44.28;94038.03;5014721;28;20036;-88
2022/05/20 00:39:05;;;;;;;3.35;3.05;;;;;;;21.61;44.11;94042.28;5013521;28;20067;-87
2022/05/20 00:41:30;;;;;;;4.00;3.45;;;;;;;21.60;44.58;94029.78;4996112;28;20045;-86
2022/05/20 00:43:55;;;;;;;3.92;3.53;;;;;;;21.59;44.44;94044.78;5014333;28;20044;-87
2022/05/20 00:46:23;;;;;;;3.83;3.42;;;;;;;21.60;44.58;94049.03;4997792;28;20127;-87
2022/05/20 00:49:01;;;;;;;4.03;3.10;;;;;;;21.58;44.18;94059.81;5015738;28;20487;-87
2022/05/20 00:51:30;;;;;;;3.60;3.30;;;;;;;21.59;44.29;94053.03;5029856;28;20124;-92
2022/05/20 00:53:57;;;;;;;3.17;2.85;;;;;;;21.59;44.46;94031.03;5018010;28;20091;-89
2022/05/20 00:56:28;;;;;;;5.97;4.22;;;;;;;21.60;44.53;94049.03;5017837;28;20033;-91
2022/05/20 00:58:54;;;;;;;4.20;3.50;;;;;;;21.57;44.47;94048.06;5007673;28;20045;-92
2022/05/20 01:01:19;;;;;;;4.22;3.20;;;;;;;21.58;44.36;94035.78;5000688;28;20083;-86
2022/05/20 01:03:45;;;;;;;4.75;3.45;;;;;;;21.59;44.48;94036.53;5001569;28;20049;-89
2022/05/20 01:06:10;;;;;;;3.50;3.20;;;;;;;21.57;44.51;94028.81;5000893;28;20041;-90
2022/05/20 01:08:37;;;;;;;3.60;3.30;;;;;;;21.58;44.56;94030.28;5017526;28;20103;-91
2022/05/20 01:11:03;;;;;;;3.40;2.92;;;;;;;21.56;44.30;94030.06;5016922;28;20128;-85
2022/05/20 01:13:29;;;;;;;3.53;3.08;;;;;;;21.57;44.24;94019.81;5016860;28;20068;-92
2022/05/20 01:15:55;;;;;;;3.85;3.35;;;;;;;21.57;44.41;94031.56;5017916;28;20033;-92
2022/05/20 01:18:20;;;;;;;3.55;2.92;;;;;;;21.55;44.26;94036.81;5020148;28;20093;-87
2022/05/20 01:20:47;;;;;;;3.95;3.25;;;;;;;21.55;44.42;94037.56;5020016;28;20052;-88
2022/05/20 01:23:15;;;;;;;3.30;3.00;;;;;;;21.56;43.91;94041.06;5052766;28;20431;-85
2022/05/20 01:25:42;;;;;;;3.25;2.92;;;;;;;21.55;44.76;94045.06;5020195;28;20471;-85
2022/05/20 01:28:08;;;;;;;3.40;3.08;;;;;;;21.53;44.63;94040.09;5035904;28;20040;-87
2022/05/20 01:30:34;;;;;;;3.38;3.08;;;;;;;21.56;44.86;94043.81;5005469;28;20127;-90
2022/05/20 01:33:04;;;;;;;3.28;2.78;;;;;;;21.54;44.43;94047.09;5017015;28;20199;-93
2022/05/20 01:35:36;;;;;;;3.80;3.05;;;;;;;21.53;44.47;94042.09;5016788;28;20434;-87
2022/05/20 01:38:03;;;;;;;3.88;3.13;;;;;;;21.54;44.71;94038.09;5066008;28;20041;-86
2022/05/20 01:40:32;;;;;;;3.42;2.90;;;;;;;21.54;44.53;94022.31;5066970;28;20041;-85
2022/05/20 01:43:06;;;;;;;3.28;2.97;;;;;;;21.53;44.52;94028.34;5049465;28;20052;-90
2022/05/20 01:45:37;;;;;;;3.55;3.25;;;;;;;21.53;44.87;94028.34;5047771;28;20047;-88
2022/05/20 01:48:11;;;;;;;2.92;2.63;;;;;;;21.52;44.53;94030.34;5016619;28;20068;-86
2022/05/20 01:50:38;;;;;;;3.50;3.20;;;;;;;21.52;44.66;94026.84;5016693;28;20611;-88
2022/05/20 01:53:07;;;;;;;3.08;2.78;;;;;;;21.51;44.77;94034.34;5032533;28;20041;-92
2022/05/20 01:55:45;;;;;;;3.20;2.90;;;;;;;21.52;44.40;94029.59;5017625;28;20048;-93
2022/05/20 01:58:19;;;;;;;3.40;3.03;;;;;;;21.51;44.84;94036.34;5039552;28;20337;-89
2022/05/20 02:00:45;;;;;;;3.15;2.78;;;;;;;21.51;44.47;94050.13;5031400;28;20473;-91
2022/05/20 02:03:14;;;;;;;3.08;2.78;;;;;;;21.52;44.76;94051.59;5014949;28;20059;-88
2022/05/20 02:05:42;;;;;;;3.47;3.03;;;;;;;21.52;44.46;94059.88;5016526;28;20116;-89
2022/05/20 02:08:13;;;;;;;3.05;2.75;;;;;;;21.52;44.71;94071.59;5032090;28;20041;-91
2022/05/20 02:10:40;;;;;;;;;;;;;;;21.51;44.77;94078.38;5032443;28;20037;-92
2022/05/20 02:13:08;;;;;;;3.88;3.33;;;;;;;21.49;44.74;94069.88;5047809;28;20334;-91
2022/05/20 02:15:53;;;;;;;2.83;2.20;;;;;;;21.48;44.58;94067.66;5033006;28;20041;-91
2022/05/20 02:18:21;;;;;;;3.17;2.88;;;;;;;21.47;44.90;94047.66;5035325;28;20037;-91
2022/05/20 02:20:48;;;;;;;3.65;3.35;;;;;;;21.48;44.98;94051.16;5019509;28;20402;-87
2022/05/20 02:23:22;;;;;;;3.15;2.85;;;;;;;21.47;44.69;94042.16;5035458;28;20110;-87
2022/05/20 02:25:50;;;;;;;4.07;3.15;;;;;;;21.46;44.84;94040.66;5020804;28;20104;-88
2022/05/20 02:28:18;;;;;;;3.90;3.13;;;;;;;21.47;44.80;94038.66;5036280;28;20032;-86
2022/05/20 02:30:44;;;;;;;4.13;2.60;;;;;;;21.48;44.72;94040.13;5037200;28;20040;-90
2022/05/20 02:33:10;;;;;;;3.72;3.17;;;;;;;21.48;44.96;94038.13;5036028;28;20407;-87
2022/05/20 02:35:35;;;;;;;2.95;2.63;;;;;;;21.48;44.65;94029.88;5070735;28;20040;-89
2022/05/20 02:38:07;;;;;;;4.72;2.85;;;;;;;21.46;45.24;94029.66;5036309;28;20040;-92
2022/05/20 02:40:33;;;;;;;4.40;2.97;;;;;;;21.46;45.21;94031.66;5019049;28;20039;-86
2022/05/20 02:42:58;;;;;;;3.55;3.10;;;;;;;21.46;45.31;94031.66;5035884;28;20498;-85
2022/05/20 02:45:24;;;;;;;3.33;3.03;;;;;;;21.48;45.18;94037.38;5032142;28;20495;-85
2022/05/20 02:47:49;;;;;;;2.78;2.58;;;;;;;21.48;45.00;94040.13;5016249;28;20518;-93
2022/05/20 02:50:14;;;;;;;3.30;3.00;;;;;;;21.47;45.34;94041.41;5012285;28;20491;-89
2022/05/20 02:52:40;;;;;;;3.10;2.80;;;;;;;21.45;45.14;94052.91;5013002;28;20048;-87
2022/05/20 02:55:06;;;;;;;3.58;2.85;;;;;;;21.48;45.13;94048.38;5029359;28;20064;-92
2022/05/20 02:57:31;;;;;;;3.55;3.05;;;;;;;21.47;45.29;94052.41;4998775;28;20041;-88
2022/05/20 03:05:25;;;;;;;2.53;2.33;;;;;;;21.45;45.10;94036.41;5014976;28;20084;-93
2022/05/20 03:07:50;;;;;;;4.68;2.75;;;;;;;21.45;45.39;94030.91;5012282;28;20041;-90
2022/05/20 03:10:16;;;;;;;4.00;3.17;;;;;;;21.43;45.49;94029.97;5011668;28;20168;-90
2022/05/20 03:12:41;;;;;;;2.97;2.67;;;;;;;21.44;45.44;94023.16;5011519;28;21004;-86
2022/05/20 03:15:10;;;;;;;2.95;2.63;;;;;;;21.43;45.43;94038.22;5012304;28;20478;-86
2022/05/20 03:17:36;;;;;;;3.20;2.70;;;;;;;21.41;45.13;94033.22;4996938;28;20227;-91
2022/05/20 03:20:03;;;;;;;2.60;2.30;;;;;;;21.43;45.12;94032.72;5012113;28;20041;-93
2022/05/20 03:22:28;;;;;;;2.58;2.13;;;;;;;21.42;44.90;94034.72;5026733;28;20505;-91
2022/05/20 03:24:54;;;;;;;3.22;2.92;;;;;;;21.44;45.01;94045.19;4996384;28;20038;-85
2022/05/20 03:27:19;;;;;;;3.20;2.90;;;;;;;21.43;45.59;94041.72;4995226;28;20357;-91
2022/05/20 03:29:45;;;;;;;3.15;2.60;;;;;;;21.44;45.08;94047.94;5028694;28;20068;-92
2022/05/20 03:32:11;;;;;;;3.50;3.20;;;;;;;21.43;45.45;94038.22;4995006;28;20068;-91
2022/05/20 03:34:38;;;;;;;3.20;2.90;;;;;;;21.43;45.47;94036.22;5028865;28;20061;-94
2022/05/20 03:37:04;;;;;;;3.58;2.80;;;;;;;21.42;45.33;94036.72;4995206;28;20394;-85
2022/05/20 03:39:29;;;;;;;2.60;2.40;;;;;;;21.41;45.19;94030.47;5012296;28;20048;-87
2022/05/20 03:41:56;;;;;;;3.47;2.78;;;;;;;21.43;45.02;94043.72;5011438;28;20037;-92
2022/05/20 03:44:21;;;;;;;4.05;2.70;;;;;;;21.43;45.17;94041.72;5028602;28;20527;-87
2022/05/20 03:46:48;;;;;;;4.43;3.17;;;;;;;21.43;45.71;94036.22;5013859;28;20041;-91
2022/05/20 03:49:14;;;;;;;2.50;2.30;;;;;;;21.43;45.17;94038.22;5012965;28;20675;-94
2022/05/20 03:51:40;;;;;;;2.08;1.88;;;;;;;21.40;45.36;94031.72;5012772;28;20053;-85
2022/05/20 03:54:06;;;;;;;3.50;2.75;;;;;;;21.43;45.38;94036.22;5012506;28;20034;-87
2022/05/20 03:56:32;;;;;;;3.22;2.20;;;;;;;21.44;45.01;94037.66;5031123;28;20040;-95
2022/05/20 03:58:57;;;;;;;3.70;2.78;;;;;;;21.46;45.23;94028.91;4997833;28;20045;-93
2022/05/20 04:04:06;;;;;;;3.30;2.97;;;;;;;21.51;45.48;94026.09;5014382;28;20514;-88
2022/05/20 04:06:31;;;;;;;2.58;2.38;;;;;;;21.49;45.31;94031.38;5012805;28;20042;-86
2022/05/20 04:08:57;;;;;;;2.70;2.40;;;;;;;21.55;45.11;94037.56;5028142;28;20030;-90
2022/05/20 04:11:23;;;;;;;2.90;2.45;;;;;;;21.55;44.82;94034.06;4995575;28;20677;-93
2022/05/20 04:13:48;;;;;;;5.70;2.97;;;;;;;21.57;45.35;94033.56;5011434;28;20049;-92
2022/05/20 04:16:14;;;;;;;3.45;2.72;;;;;;;21.56;45.21;94030.06;5012154;28;20034;-89
2022/05/20 04:18:41;;;;;;;2.65;2.45;;;;;;;21.55;45.21;94037.56;5020348;28;20033;-91
2022/05/20 04:21:08;;;;;;;2.88;2.50;;;;;;;21.60;45.21;94035.28;5030543;28;20502;-87
2022/05/20 04:23:33;;;;;;;3.83;2.60;;;;;;;21.58;45.66;94044.06;5014511;28;20044;-86
2022/05/20 04:25:58;;;;;;;3.42;3.13;;;;;;;21.62;45.60;94046.50;5031443;28;20041;-91
2022/05/20 04:28:24;;;;;;;2.85;2.40;;;;;;;21.59;45.23;94047.53;5028926;28;20042;-87
2022/05/20 04:30:59;;;;;;;3.13;2.67;;;;;;;21.58;45.26;94051.56;5010981;28;20037;-86
2022/05/20 04:33:25;;;;;;;3.40;2.60;;;;;;;21.59;45.42;94055.81;5011055;28;20050;-88
2022/05/20 04:35:51;;;;;;;5.43;2.90;;;;;;;21.60;45.35;94063.53;5011469;28;20036;-90
2022/05/20 04:38:16;;;;;;;4.47;2.58;;;;;;;21.60;45.11;94052.53;4994008;28;20038;-88
2022/05/20 04:40:41;;;;;;;2.95;2.53;;;;;;;21.60;45.16;94058.03;5010635;28;20053;-87
2022/05/20 04:48:55;;;;;;;2.55;2.35;;;;;;;21.60;45.00;94049.03;4947332;29;20054;-91
2022/05/20 04:51:20;;;;;;;4.43;2.08;;;;;;;21.61;44.84;94053.28;4930380;29;20047;-93
2022/05/20 04:56:29;;;;;;;4.00;2.35;;;;;;;21.63;44.74;94059.00;4933692;28;20463;-93
2022/05/20 04:58:55;;;;;;;2.50;1.88;;;;;;;21.63;44.92;94059.75;4938282;29;20043;-86
2022/05/20 05:01:20;;;;;;;2.70;2.20;;;;;;;21.66;44.89;94063.47;4946618;28;20120;-90
2022/05/20 05:03:46;;;;;;;2.85;2.50;;;;;;;21.67;45.19;94062.19;4931332;29;20047;-87
2022/05/20 05:06:12;;;;;;;2.47;2.28;;;;;;;21.66;45.12;94064.22;4947118;29;20435;-93
2022/05/20 05:08:37;;;;;;;3.97;2.17;;;;;;;21.69;44.97;94067.94;4946501;29;20039;-89
2022/05/20 05:11:03;;;;;;;2.88;2.08;;;;;;;21.69;45.03;94068.69;4946358;29;20062;-91
2022/05/20 05:13:28;;;;;;;4.45;2.47;;;;;;;21.73;44.88;94071.16;4946494;29;20040;-92
2022/05/20 05:15:54;;;;;;;2.05;1.85;;;;;;;21.75;44.66;94074.13;4951552;28;20044;-91
2022/05/20 05:18:23;;;;;;;2.38;1.83;;;;;;;21.73;44.80;94074.66;5011759;28;20084;-87
2022/05/20 05:20:50;;;;;;;2.63;2.25;;;;;;;21.74;45.09;94069.88;5013671;28;20094;-89
2022/05/20 05:23:16;;;;;;;2.08;1.77;;;;;;;21.76;44.66;94064.63;5012127;28;20048;-89
2022/05/20 05:25:41;;;;;;;2.13;1.92;;;;;;;21.77;44.38;94064.09;5029175;28;20536;-90
2022/05/20 05:28:07;;;;;;;1.92;1.70;;;;;;;21.80;44.85;94063.06;5011756;28;20037;-89
2022/05/20 05:30:32;;;;;;;2.80;2.17;;;;;;;21.80;44.61;94067.81;5014171;28;20756;-91
2022/05/20 05:32:58;;;;;;;1.83;1.73;;;;;;;21.77;44.95;94072.34;5007999;28;20053;-89
2022/05/20 05:35:24;;;;;;;2.22;1.98;;;;;;;21.83;44.48;94070.28;5008558;28;20028;-85
2022/05/20 05:37:50;;;;;;;4.03;1.60;;;;;;;21.81;44.66;94072.06;5009657;28;20061;-88
2022/05/20 05:40:18;;;;;;;2.15;1.80;;;;;;;21.85;44.63;94081.53;4995137;28;20073;-90
2022/05/20 05:42:43;;;;;;;1.92;1.52;;;;;;;21.85;44.66;94078.78;5028678;28;20045;-90
2022/05/20 05:45:10;;;;;;;1.20;1.10;;;;;;;21.86;45.01;94080.28;4996076;28;20573;-88
2022/05/20 05:47:36;;;;;;;1.60;1.50;;;;;;;21.88;44.60;94077.72;4996693;28;20041;-87
2022/05/20 05:50:02;;;;;;;1.25;1.15;;;;;;;21.89;44.65;94078.47;5012463;28;20397;-87
2022/05/20 05:52:27;;;;;;;2.03;1.50;;;;;;;21.92;44.81;94076.69;5029160;28;20044;-85
2022/05/20 05:54:52;;;;;;;2.55;1.20;;;;;;;21.93;44.35;94087.19;5012041;28;20484;-86
2022/05/20 05:57:18;;;;;;;1.77;1.40;;;;;;;21.94;44.57;94087.94;5011601;28;20562;-89
2022/05/20 05:59:43;;;;;;;1.40;1.23;;;;;;;21.97;44.28;94089.66;4996083;28;20044;-91
2022/05/20 06:02:09;;;;;;;1.27;1.17;;;;;;;21.97;44.50;94084.16;4995817;28;20049;-89
2022/05/20 06:04:35;;;;;;;1.63;1.52;;;;;;;21.98;44.33;94080.13;4994588;28;20042;-88
2022/05/20 06:07:00;;;;;;;3.70;1.30;;;;;;;22.00;44.69;94074.84;4995803;28;20377;-90
2022/05/20 06:09:26;;;;;;;1.50;1.40;;;;;;;22.00;44.56;94083.88;4995076;28;20488;-90
2022/05/20 06:11:51;;;;;;;1.30;1.13;;;;;;;22.00;44.69;94083.88;5011802;28;20034;-87
2022/05/20 06:14:17;;;;;;;2.85;1.38;;;;;;;22.01;44.76;94077.13;5011419;28;20057;-86
2022/05/20 06:16:42;;;;;;;2.72;1.20;;;;;;;22.04;44.25;94083.59;5012050;28;20408;-86
2022/05/20 06:19:08;;;;;;;1.50;1.00;;;;;;;22.04;44.16;94083.59;5001280;28;20041;-85
2022/05/20 06:21:33;;;;;;;3.17;1.17;;;;;;;22.07;44.80;94074.31;5028878;28;20037;-84
2022/05/20 06:24:01;;;;;;;1.67;1.20;;;;;;;22.05;44.51;94076.84;5010726;28;20037;-89
2022/05/20 06:26:27;;;;;;;2.33;1.15;;;;;;;22.04;44.58;94078.09;5026910;28;20128;-86
2022/05/20 06:28:53;;;;;;;1.15;1.05;;;;;;;22.04;44.39;94084.34;5011412;28;20051;-85
2022/05/20 06:31:18;;;;;;;1.13;0.90;;;;;;;22.05;44.38;94076.84;5010663;28;20676;-86
2022/05/20 06:33:44;;;;;;;2.58;1.30;;;;;;;22.04;44.62;94073.34;5011041;28;20436;-89
2022/05/20 06:41:37;;;;;;;10.07;2.38;;;;;;;22.12;44.71;94070.72;5047551;28;20218;-86
2022/05/20 06:44:03;;;;;;;1.35;1.20;;;;;;;22.12;44.85;94067.97;5031234;28;20052;-85
2022/05/20 06:46:29;;;;;;;1.25;1.15;;;;;;;22.12;44.68;94071.47;5035228;28;20044;-89
2022/05/20 06:48:55;;;;;;;2.28;1.48;;;;;;;22.15;44.68;94067.69;5027637;28;20103;-85
2022/05/20 06:51:23;;;;;;;3.97;1.50;;;;;;;22.19;44.70;94065.38;5014614;28;20041;-87
2022/05/20 06:53:51;;;;;;;4.38;1.50;;;;;;;22.19;44.85;94057.13;5024297;28;20041;-84
2022/05/20 06:56:16;;;;;;;3.20;1.40;;;;;;;22.19;44.97;94070.88;4997498;28;20049;-89
2022/05/20 06:58:42;;;;;;;1.10;0.98;;;;;;;22.21;44.58;94065.59;4995890;28;20415;-85
2022/05/20 07:01:08;;;;;;;3.13;1.50;;;;;;;22.23;44.66;94063.09;5011820;28;20124;-84
2022/05/20 07:03:33;;;;;;;1.48;1.38;;;;;;;22.25;44.46;94057.06;5013877;28;20419;-84
2022/05/20 07:05:59;;;;;;;1.50;1.40;;;;;;;22.29;44.49;94060.25;4996789;28;20059;-85
2022/05/20 07:08:24;;;;;;;2.80;1.17;;;;;;;22.29;44.45;94060.25;5012436;28;20538;-88
2022/05/20 07:10:52;;;;;;;3.28;1.30;;;;;;;22.28;44.51;94058.03;5022439;28;20037;-85
2022/05/20 07:13:17;;;;;;;3.88;1.88;;;;;;;22.30;44.62;94058.25;5042896;28;20098;-86
2022/05/20 07:15:43;;;;;;;1.90;1.15;;;;;;;22.29;44.66;94060.25;5026690;28;20037;-86
2022/05/20 07:18:10;;;;;;;1.13;1.00;;;;;;;22.29;44.79;94062.28;5023922;28;20067;-85
2022/05/20 07:20:35;;;;;;;1.30;1.00;;;;;;;22.31;44.68;94059.72;5047189;23;20049;-89
2022/05/20 07:23:01;;;;;;;1.40;1.08;;;;;;;22.31;44.72;94067.97;5026875;28;20044;-91
2022/05/20 07:25:27;;;;;;;4.35;1.20;;;;;;;22.32;44.87;94069.47;5006221;28;20044;-86
2022/05/20 07:27:56;;;;;;;3.45;1.10;;;;;;;22.33;44.59;94068.22;5024735;28;20034;-85
2022/05/20 07:30:22;;;;;;;2.03;1.23;;;;;;;22.32;45.02;94072.22;5025752;28;20052;-86
2022/05/20 07:32:48;;;;;;;1.60;1.10;;;;;;;22.33;45.02;94071.72;5060246;28;20042;-85
2022/05/20 07:35:16;;;;;;;1.25;1.15;;;;;;;22.34;44.75;94067.69;5026147;28;20438;-86
2022/05/20 07:37:41;;;;;;;1.42;1.20;;;;;;;22.32;44.86;94067.47;5037913;28;20061;-86
2022/05/20 07:40:10;;;;;;;1.30;1.15;;;;;;;22.34;44.79;94064.94;5004484;28;20404;-86
2022/05/20 07:42:36;;;;;;;1.42;1.27;;;;;;;22.33;44.96;94066.19;5001628;28;20113;-87
2022/05/20 07:45:01;;;;;;;3.15;1.00;;;;;;;22.36;44.65;94064.41;5011255;23;20045;-87
2022/05/20 07:47:36;;;;;;;1.20;0.90;;;;;;;22.34;44.58;94056.66;5009409;28;20049;-85
2022/05/20 07:50:04;;;;;;;1.77;1.10;;;;;;;22.36;44.78;94065.16;5038104;28;20384;-86
2022/05/20 07:55:14;;;;;;;3.75;0.90;;;;;;;22.36;44.79;94070.66;5039106;22;20147;-85
2022/05/20 07:57:39;;;;;;;1.30;1.20;;;;;;;22.37;44.81;94065.91;5045858;23;20044;-86
2022/05/20 08:00:09;;;;;;;1.20;1.10;;;;;;;22.39;44.56;94066.88;5010076;28;20048;-86
2022/05/20 08:02:35;;;;;;;1.13;1.02;;;;;;;22.37;44.67;94060.41;5063193;28;20040;-85
2022/05/20 08:05:08;;;;;;;2.00;0.70;;;;;;;22.35;44.91;94079.44;5047961;28;20052;-86
2022/05/20 08:08:00;;;;;;;0.73;0.73;;;;;;;22.39;44.61;94077.16;5046858;28;20033;-86
2022/05/20 08:10:29;;;;;;;1.55;1.20;;;;;;;22.39;44.68;94063.38;5063555;28;20036;-85
2022/05/20 08:12:56;;;;;;;1.10;1.00;;;;;;;22.36;45.18;94065.16;5029537;23;20045;-87
2022/05/20 08:15:22;;;;;;;1.35;0.98;;;;;;;22.39;44.69;94069.63;5043287;28;20033;-86
2022/05/20 08:17:47;;;;;;;1.23;0.98;;;;;;;22.37;44.83;94068.66;5043169;28;20410;-85
2022/05/20 08:20:22;;;;;;;1.67;0.90;;;;;;;22.37;44.62;94061.13;5040043;22;21121;-86
2022/05/20 08:22:48;;;;;;;0.82;0.80;;;;;;;22.37;44.77;94069.41;5044866;28;20033;-85
2022/05/20 08:25:14;;;;;;;1.50;1.08;;;;;;;22.37;44.93;94066.66;5033516;28;20083;-89
2022/05/20 08:27:40;;;;;;;0.88;0.88;;;;;;;22.35;45.12;94065.69;5061652;28;20041;-87
2022/05/20 08:30:24;;;;;;;3.20;1.10;;;;;;;22.37;44.77;94058.38;5064630;28;20052;-85
2022/05/20 08:32:50;;;;;;;1.02;1.00;;;;;;;22.36;44.76;94053.41;5081588;28;20040;-86
2022/05/20 08:35:16;;;;;;;1.00;0.90;;;;;;;22.37;45.03;94054.88;5062007;28;20033;-86
2022/05/20 08:37:43;;;;;;;1.17;0.90;;;;;;;22.37;44.77;94052.88;5042391;23;20071;-86
2022/05/20 08:40:11;;;;;;;1.88;1.52;;;;;;;22.35;44.88;94060.16;5048035;28;20039;-88
2022/05/20 08:42:37;;;;;;;1.30;1.05;;;;;;;22.36;44.54;94056.91;5063199;28;20039;-86
2022/05/20 08:45:13;;;;;;;1.23;0.93;;;;;;;22.35;44.85;94054.66;5046028;28;20041;-85
2022/05/20 08:47:46;;;;;;;0.73;0.70;;;;;;;22.36;44.72;94047.88;5012785;28;20095;-86
2022/05/20 08:50:18;;;;;;;6.13;1.10;;;;;;;22.36;44.68;94043.13;5063190;28;20045;-86
2022/05/20 08:52:43;;;;;;;2.50;1.00;;;;;;;22.38;45.06;94039.84;5029486;28;20035;-86
2022/05/20 08:55:13;;;;;;;0.80;0.80;;;;;;;22.41;44.84;94047.81;5048307;23;20037;-88
2022/05/20 08:57:39;;;;;;;0.80;0.80;;;;;;;22.40;44.68;94042.81;5062226;28;20037;-88
2022/05/20 09:00:07;;;;;;;1.02;0.90;;;;;;;22.38;45.08;94028.81;5023877;28;20119;-86
2022/05/20 09:02:32;;;;;;;1.10;0.80;;;;;;;22.36;45.02;94034.84;5027192;28;20090;-86
2022/05/20 09:04:58;;;;;;;2.80;1.23;;;;;;;22.35;44.94;94041.63;5029345;28;20030;-86
2022/05/20 09:07:23;;;;;;;1.65;1.20;;;;;;;22.37;44.88;94041.84;5022334;23;20053;-86
2022/05/20 09:09:56;;;;;;;1.10;0.80;;;;;;;22.37;44.99;94047.38;5011560;28;20050;-87
2022/05/20 09:12:37;;;;;;;2.30;0.77;;;;;;;22.34;45.05;94042.16;5046091;28;20136;-86
2022/05/20 09:18:28;;;;;;;1.83;0.80;;;;;;;22.35;45.00;94041.63;5077114;22;20514;-87
2022/05/20 09:20:53;;;;;;;0.68;0.60;;;;;;;22.37;45.02;94033.59;5081936;23;20044;-86
2022/05/20 09:23:21;;;;;;;1.05;0.95;;;;;;;22.39;45.41;94035.81;5051245;28;20064;-86
2022/05/20 09:25:53;;;;;;;0.65;0.60;;;;;;;22.37;45.02;94044.59;5067844;28;20025;-86
2022/05/20 09:28:39;;;;;;;0.60;0.60;;;;;;;22.36;45.03;94040.38;5066795;28;20029;-86
2022/05/20 09:31:17;;;;;;;0.98;0.90;;;;;;;22.36;44.96;94045.88;5042633;28;20041;-87
2022/05/20 09:33:54;;;;;;;0.95;0.70;;;;;;;22.38;45.55;94039.84;5022543;28;20072;-87
2022/05/20 09:36:31;;;;;;;1.10;0.60;;;;;;;22.40;45.32;94040.06;5025986;28;20041;-86
2022/05/20 09:39:23;;;;;;;0.85;0.80;;;;;;;22.37;45.03;94035.59;5030737;28;20041;-85
2022/05/20 09:41:56;;;;;;;0.60;0.60;;;;;;;22.41;44.92;94036.78;5028302;28;20087;-86
2022/05/20 09:44:24;;;;;;;1.60;0.82;;;;;;;22.42;45.12;94035.53;5043491;28;20046;-85
2022/05/20 09:46:58;;;;;;;1.75;0.90;;;;;;;22.38;45.07;94032.31;5013682;28;20040;-86
2022/05/20 09:49:32;;;;;;;2.22;0.85;;;;;;;22.39;45.17;94033.06;5024550;28;20051;-86
2022/05/20 09:51:59;;;;;;;0.55;0.52;;;;;;;22.38;45.45;94029.56;5046328;28;20057;-86
2022/05/20 09:54:33;;;;;;;1.10;0.90;;;;;;;22.37;45.19;94030.09;5009114;28;20628;-85
2022/05/20 09:57:09;;;;;;;0.52;0.50;;;;;;;22.37;45.48;94027.34;5027128;28;20475;-86
2022/05/20 10:00:07;;;;;;;1.30;0.70;;;;;;;22.40;45.33;94016.03;5028300;28;20076;-87
2022/05/20 10:02:38;;;;;;;0.63;0.57;;;;;;;22.40;45.25;94013.28;5053871;28;20059;-86
2022/05/20 10:05:28;;;;;;;0.85;0.70;;;;;;;22.38;45.33;94013.03;5069706;28;20049;-86
2022/05/20 10:08:20;;;;;;;0.60;0.60;;;;;;;22.39;44.96;94005.53;5066341;28;20040;-86
2022/05/20 10:11:11;;;;;;;0.95;0.70;;;;;;;22.37;45.38;94005.31;5065433;28;20052;-87
2022/05/20 10:13:36;;;;;;;0.52;0.50;;;;;;;22.41;45.49;94000.25;5067831;28;20040;-86
2022/05/20 10:16:10;;;;;;;0.88;0.88;;;;;;;22.36;45.27;93996.28;5065377;28;20041;-86
2022/05/20 10:19:01;;;;;;;0.63;0.60;;;;;;;22.38;45.42;93996.50;5059726;28;20032;-86
2022/05/20 10:21:49;;;;;;;0.73;0.73;;;;;;;22.36;45.28;93996.28;5064454;28;20061;-85
2022/05/20 10:24:23;;;;;;;0.98;0.82;;;;;;;22.38;45.20;93988.25;4979765;28;20034;-87
2022/05/20 10:27:02;;;;;;;0.65;0.50;;;;;;;22.39;45.16;93991.75;5062637;22;20026;-85
2022/05/20 10:33:06;;;;;;;0.70;0.70;;;;;;;22.39;45.20;93986.25;4970034;28;20069;-86
2022/05/20 10:35:47;;;;;;;0.50;0.50;;;;;;;22.38;45.33;93984.75;5002841;22;20049;-86
2022/05/20 10:38:50;;;;;;;0.63;0.60;;;;;;;22.37;45.34;93981.25;5086979;28;20050;-86
2022/05/20 10:41:44;;;;;;;0.68;0.60;;;;;;;22.34;45.47;93982.28;5080383;22;20503;-87
2022/05/20 10:50:38;;;;;;;0.82;0.65;;;;;;;22.38;45.42;93971.72;5088455;28;20521;-87
2022/05/20 10:53:39;;;;;;;0.63;0.50;;;;;;;22.36;45.50;93966.00;5091550;28;20074;-86
2022/05/20 10:56:42;;;;;;;0.50;0.50;;;;;;;22.35;45.19;93972.75;5044401;28;20038;-87
2022/05/20 10:59:29;;;;;;;0.50;0.50;;;;;;;22.37;45.54;93967.47;5035028;28;20056;-87
2022/05/20 11:04:26;;;;;;;0.77;0.60;;;;;;;22.38;45.50;93957.94;5081199;22;20770;-87
2022/05/20 11:07:08;;;;;;;1.02;0.80;;;;;;;22.37;45.64;93953.72;5083121;22;20392;-86
2022/05/20 11:09:58;;;;;;;0.57;0.55;;;;;;;22.36;45.70;93956.97;5103631;22;20045;-86
2022/05/20 11:12:26;;;;;;;0.83;0.50;;;;;;;22.38;45.76;93960.72;5086381;28;20040;-86
2022/05/20 11:14:57;;;;;;;1.58;0.50;;;;;;;22.36;46.05;93960.47;5089553;28;20056;-87
2022/05/20 11:17:44;;;;;;;1.02;0.68;;;;;;;22.37;45.34;93945.44;5080828;22;20053;-87
2022/05/20 11:20:35;;;;;;;0.60;0.60;;;;;;;22.37;45.68;93945.44;5073171;28;20049;-87
2022/05/20 11:25:43;;;;;;;0.73;0.60;;;;;;;22.39;45.70;93942.16;5071922;22;20040;-86
2022/05/20 11:28:37;;;;;;;0.85;0.50;;;;;;;22.37;45.74;93936.44;5069071;28;20036;-86
2022/05/20 11:31:19;;;;;;;0.60;0.55;;;;;;;22.38;45.54;93924.16;5066591;28;20037;-87
2022/05/20 11:36:39;;;;;;;0.65;0.50;;;;;;;22.40;45.70;93927.13;5093599;22;20066;-86
2022/05/20 11:39:49;;;;;;;0.70;0.57;;;;;;;22.37;45.63;93922.66;5074990;23;20612;-85
2022/05/20 11:42:37;;;;;;;0.82;0.63;;;;;;;22.39;45.87;93925.63;5079031;28;20573;-87
2022/05/20 11:45:10;;;;;;;;;;;;;;;22.34;45.60;93927.22;5090214;23;20033;-86
2022/05/20 11:47:48;;;;;;;0.98;0.63;;;;;;;22.39;45.79;93914.63;5051326;23;19905;-86
2022/05/20 11:50:45;;;;;;;0.50;0.40;;;;;;;22.38;45.57;93921.41;5047049;28;20033;-86
2022/05/20 11:53:14;;;;;;;0.60;0.52;;;;;;;22.41;45.75;93910.06;5027858;28;20049;-87
2022/05/20 11:55:39;;;;;;;0.73;0.32;;;;;;;22.42;45.94;93913.56;5052333;28;20016;-87
2022/05/20 11:58:07;;;;;;;0.32;0.32;;;;;;;22.40;45.70;93916.09;5046775;28;20091;-87
2022/05/20 12:00:35;;;;;;;0.40;0.40;;;;;;;22.40;45.48;93916.84;5025194;23;20040;-86
2022/05/20 12:03:07;;;;;;;1.13;0.50;;;;;;;22.41;45.67;93903.81;5048915;28;20040;-87
2022/05/20 12:05:40;;;;;;;1.85;0.60;;;;;;;22.38;45.99;93904.88;5045373;28;20048;-86
2022/05/20 12:08:29;;;;;;;0.70;0.60;;;;;;;22.40;45.87;93907.84;5036585;23;20053;-86
2022/05/20 12:11:26;;;;;;;0.63;0.60;;;;;;;22.37;45.74;93904.13;5069558;28;20059;-87
2022/05/20 12:13:58;;;;;;;0.70;0.60;;;;;;;22.43;45.73;93895.78;5075367;23;20056;-87
2022/05/20 12:16:23;;;;;;;0.80;0.70;;;;;;;22.41;45.86;93882.53;5089313;28;20028;-87
2022/05/20 12:24:38;;;;;;;0.38;0.38;;;;;;;22.40;45.85;93886.56;5067603;28;20043;-86
2022/05/20 12:27:43;;;;;;;1.67;0.43;;;;;;;22.38;45.95;93882.81;5049086;28;20071;-86
2022/05/20 12:30:17;;;;;;;1.25;0.50;;;;;;;22.41;45.74;93871.50;4983474;28;20099;-86
2022/05/20 12:32:44;;;;;;;0.70;0.50;;;;;;;22.40;45.90;93872.78;4963782;28;20074;-86
2022/05/20 12:35:30;;;;;;;1.88;0.60;;;;;;;22.42;45.87;93872.25;4952137;29;20043;-86
2022/05/20 12:37:58;;;;;;;0.75;0.50;;;;;;;22.43;45.84;93870.97;4976736;23;20039;-86